Main page
METAR-TAF:

METAR-TAF

Airports :

Karlstad Airport

Karlstad, Sweden

latitude: 59-26-41N, longitude: 013-20-15E, elevation: 107 m

Current weather observation

The report was made 30 minutes ago, at 17:50 UTC
Wind 5 kt from the South
Temperature 21°C
Humidity 60%
Pressure 1012 hPa
Visibility 10 km or more

METAR: ESOK 231750Z AUTO 18005KT 9999 NCD 21/13 Q1012

Time: 20:20 (18:20 UTC)

Forecast

The report was made 6 hours and 50 minutes ago, at 11:30 UTC
Forecast valid from 23 at 12 UTC to 23 at 15 UTC
Wind 7 kt from the South/Southwest
Visibility 10 km or more
Scattered clouds at a height of 2000 ft

TAF: ESOK 231130Z 2312/2315 20007KT 9999 SCT020

Weather observations and forecasts of more than 4000 airports (METAR and TAF reports).

The available stations are represented by yellow and red dots on the map.

Hover mouse over dot to see the name of the station.

Then click to see weather observations and forecasts.

To change the map : click on the green buttons with a black cross to zoom in, on the green button with a dash to zoom out, or on the green arrows for adjacent maps.


METAR-TAF: